K-marine X — WDH2136 — position and weather

sailwx.info

Track history (hours):
 
Tides and Currents Weather Stations Pressure Air Temp Water Temp Dewpoint Dewpoint Depression Visibility Wind Speed Wind Dir Waves Ship Positions

K-marine X

Owner: Yellow Fin Marine Services, LLC, Gray, LA. More information available from US FCC via Universal Licensing System and Coast Guard Vessel Documentation Center.

Last reported at 2017-Sep-19 03:29 UTC. Time now 2017-Sep-21 01:34 UTC.
Position N 29°37' W 092°17'.

Length 80 m; draft 3 m.

Type: Other ship. MMSI: 367594740.

Date/timePositionNaut miles runAvg speedWind from/ knotsBaromVisibWave heightAir tempDewpointWater temp
2017-Sep-19 03:29N 29°37' W 092°17'4 7.3
2017-Sep-19 02:55N 29°40' W 092°15'3 7.6
2017-Sep-19 02:30N 29°44' W 092°15'4 7.6
2017-Sep-19 02:00N 29°46' W 092°11'1 1.7
2017-Sep-19 01:28N 29°47' W 092°11'0 0.0
2017-Sep-19 00:58N 29°47' W 092°11'0 0.0
2017-Sep-19 00:28N 29°47' W 092°11'0 0.0
2017-Sep-18 23:58N 29°47' W 092°11'0 0.0
2017-Sep-18 23:28N 29°47' W 092°11'0 0.0
2017-Sep-18 22:58N 29°47' W 092°11'0 0.0
2017-Sep-18 22:28N 29°47' W 092°11'0 0.0
2017-Sep-18 21:58N 29°47' W 092°11'0 0.0
2017-Sep-18 21:28N 29°47' W 092°11'0 0.0
2017-Sep-18 20:58N 29°47' W 092°11'0 0.0
2017-Sep-18 20:28N 29°47' W 092°11'0 0.0
2017-Sep-18 19:58N 29°47' W 092°11'0 0.2
2017-Sep-18 19:28N 29°47' W 092°11'0 0.0
2017-Sep-18 18:58N 29°47' W 092°11'0 0.0
2017-Sep-18 18:28N 29°47' W 092°11'0 0.0
2017-Sep-18 18:01N 29°47' W 092°11'0 0.2
2017-Sep-18 17:28N 29°47' W 092°11'0 0.0
2017-Sep-18 16:58N 29°47' W 092°11'0 0.0
2017-Sep-18 16:28N 29°47' W 092°11'0 0.0
2017-Sep-18 15:58N 29°47' W 092°11'0 0.0
2017-Sep-18 15:28N 29°47' W 092°11'0 0.0
2017-Sep-18 14:58N 29°47' W 092°11'0 0.0
2017-Sep-18 14:28N 29°47' W 092°11'0 0.0
2017-Sep-18 13:58N 29°47' W 092°11'0 0.0
2017-Sep-18 13:28N 29°47' W 092°11'0 0.0
2017-Sep-18 12:58N 29°47' W 092°11'0 0.0
2017-Sep-18 12:28N 29°47' W 092°11'0 0.0
2017-Sep-18 11:58N 29°47' W 092°11'0 0.0
2017-Sep-18 11:28N 29°47' W 092°11'0 0.0
2017-Sep-18 10:58N 29°47' W 092°11'0 0.0
2017-Sep-18 10:28N 29°47' W 092°11'0 0.0
2017-Sep-18 09:58N 29°47' W 092°11'0 0.0
2017-Sep-18 09:28N 29°47' W 092°11'0 0.0
2017-Sep-18 08:58N 29°47' W 092°11'0 0.0
2017-Sep-18 08:28N 29°47' W 092°11'0 0.0
2017-Sep-18 07:58N 29°47' W 092°11'0 0.1
2017-Sep-18 07:30N 29°47' W 092°11'2 4.8
2017-Sep-18 07:00N 29°45' W 092°13'4 8.0
2017-Sep-18 06:30N 29°41' W 092°15'4 7.9
2017-Sep-18 06:00N 29°37' W 092°16'  
2017-Sep-11 21:58N 29°37' W 092°17'4 6.7
2017-Sep-11 21:20N 29°41' W 092°15'2 7.1
2017-Sep-11 21:00N 29°43' W 092°15'3 6.8
2017-Sep-11 20:30N 29°45' W 092°12'2 3.1
2017-Sep-11 20:00N 29°47' W 092°11'0 0.0
2017-Sep-11 19:30N 29°47' W 092°11'0 0.0
2017-Sep-11 19:00N 29°47' W 092°11'0 0.0
2017-Sep-11 18:30N 29°47' W 092°11'0 0.0
2017-Sep-11 18:00N 29°47' W 092°11'0 0.0
2017-Sep-11 17:30N 29°47' W 092°11'0 0.0
2017-Sep-11 16:54N 29°47' W 092°11'0 0.0
2017-Sep-11 16:30N 29°47' W 092°11'0 0.0
2017-Sep-11 16:00N 29°47' W 092°11'0 0.0
2017-Sep-11 15:30N 29°47' W 092°11'0 0.0
2017-Sep-11 14:48N 29°47' W 092°11'0 0.0
2017-Sep-11 14:30N 29°47' W 092°11'0 0.0
2017-Sep-11 14:00N 29°47' W 092°11'0 0.0
2017-Sep-11 13:24N 29°47' W 092°11'0 0.1
2017-Sep-11 12:00N 29°47' W 092°11'0 0.0
2017-Sep-11 11:29N 29°47' W 092°11'1 1.8
2017-Sep-11 11:00N 29°47' W 092°10'0 0.0
2017-Sep-11 10:30N 29°47' W 092°10'0 0.0
2017-Sep-11 09:57N 29°47' W 092°10'0 0.0
2017-Sep-11 09:30N 29°47' W 092°10'0 0.0
2017-Sep-11 09:00N 29°47' W 092°10'0 0.0
2017-Sep-11 08:00N 29°47' W 092°10'0 0.0
2017-Sep-11 07:24N 29°47' W 092°10'0 0.0
2017-Sep-11 06:36N 29°47' W 092°10'0 0.0
2017-Sep-11 06:29N 29°47' W 092°10'1 1.3
2017-Sep-11 05:50N 29°47' W 092°11'0 0.0
2017-Sep-11 05:23N 29°47' W 092°11'1 2.0
2017-Sep-11 05:00N 29°46' W 092°10'4 8.5
2017-Sep-11 04:29N 29°44' W 092°15'4 8.0
2017-Sep-11 04:00N 29°40' W 092°15'4 7.7
2017-Sep-11 03:30N 29°36' W 092°17'  
Track history (hours):
 
Tides and Currents Weather Stations Pressure Air Temp Water Temp Dewpoint Dewpoint Depression Visibility Wind Speed Wind Dir Waves Ship Positions

K-marine X

Owner: Yellow Fin Marine Services, LLC, Gray, LA. More information available from US FCC via Universal Licensing System and Coast Guard Vessel Documentation Center.

Last reported at 2017-Sep-19 03:29 UTC. Time now 2017-Sep-21 01:34 UTC.
Position N 29°37' W 092°17'.

Length 80 m; draft 3 m.

Type: Other ship. MMSI: 367594740.

Date/timePositionNaut miles runAvg speedWind from/ knotsBaromVisibWave heightAir tempDewpointWater temp
2017-Sep-19 03:29N 29°37' W 092°17'4 7.3
2017-Sep-19 02:55N 29°40' W 092°15'3 7.6
2017-Sep-19 02:30N 29°44' W 092°15'4 7.6
2017-Sep-19 02:00N 29°46' W 092°11'1 1.7
2017-Sep-19 01:28N 29°47' W 092°11'0 0.0
2017-Sep-19 00:58N 29°47' W 092°11'0 0.0
2017-Sep-19 00:28N 29°47' W 092°11'0 0.0
2017-Sep-18 23:58N 29°47' W 092°11'0 0.0
2017-Sep-18 23:28N 29°47' W 092°11'0 0.0
2017-Sep-18 22:58N 29°47' W 092°11'0 0.0
2017-Sep-18 22:28N 29°47' W 092°11'0 0.0
2017-Sep-18 21:58N 29°47' W 092°11'0 0.0
2017-Sep-18 21:28N 29°47' W 092°11'0 0.0
2017-Sep-18 20:58N 29°47' W 092°11'0 0.0
2017-Sep-18 20:28N 29°47' W 092°11'0 0.0
2017-Sep-18 19:58N 29°47' W 092°11'0 0.2
2017-Sep-18 19:28N 29°47' W 092°11'0 0.0
2017-Sep-18 18:58N 29°47' W 092°11'0 0.0
2017-Sep-18 18:28N 29°47' W 092°11'0 0.0
2017-Sep-18 18:01N 29°47' W 092°11'0 0.2
2017-Sep-18 17:28N 29°47' W 092°11'0 0.0
2017-Sep-18 16:58N 29°47' W 092°11'0 0.0
2017-Sep-18 16:28N 29°47' W 092°11'0 0.0
2017-Sep-18 15:58N 29°47' W 092°11'0 0.0
2017-Sep-18 15:28N 29°47' W 092°11'0 0.0
2017-Sep-18 14:58N 29°47' W 092°11'0 0.0
2017-Sep-18 14:28N 29°47' W 092°11'0 0.0
2017-Sep-18 13:58N 29°47' W 092°11'0 0.0
2017-Sep-18 13:28N 29°47' W 092°11'0 0.0
2017-Sep-18 12:58N 29°47' W 092°11'0 0.0
2017-Sep-18 12:28N 29°47' W 092°11'0 0.0
2017-Sep-18 11:58N 29°47' W 092°11'0 0.0
2017-Sep-18 11:28N 29°47' W 092°11'0 0.0
2017-Sep-18 10:58N 29°47' W 092°11'0 0.0
2017-Sep-18 10:28N 29°47' W 092°11'0 0.0
2017-Sep-18 09:58N 29°47' W 092°11'0 0.0
2017-Sep-18 09:28N 29°47' W 092°11'0 0.0
2017-Sep-18 08:58N 29°47' W 092°11'0 0.0
2017-Sep-18 08:28N 29°47' W 092°11'0 0.0
2017-Sep-18 07:58N 29°47' W 092°11'0 0.1
2017-Sep-18 07:30N 29°47' W 092°11'2 4.8
2017-Sep-18 07:00N 29°45' W 092°13'4 8.0
2017-Sep-18 06:30N 29°41' W 092°15'4 7.9
2017-Sep-18 06:00N 29°37' W 092°16'  
2017-Sep-11 21:58N 29°37' W 092°17'4 6.7
2017-Sep-11 21:20N 29°41' W 092°15'2 7.1
2017-Sep-11 21:00N 29°43' W 092°15'3 6.8
2017-Sep-11 20:30N 29°45' W 092°12'2 3.1
2017-Sep-11 20:00N 29°47' W 092°11'0 0.0
2017-Sep-11 19:30N 29°47' W 092°11'0 0.0
2017-Sep-11 19:00N 29°47' W 092°11'0 0.0
2017-Sep-11 18:30N 29°47' W 092°11'0 0.0
2017-Sep-11 18:00N 29°47' W 092°11'0 0.0
2017-Sep-11 17:30N 29°47' W 092°11'0 0.0
2017-Sep-11 16:54N 29°47' W 092°11'0 0.0
2017-Sep-11 16:30N 29°47' W 092°11'0 0.0
2017-Sep-11 16:00N 29°47' W 092°11'0 0.0
2017-Sep-11 15:30N 29°47' W 092°11'0 0.0
2017-Sep-11 14:48N 29°47' W 092°11'0 0.0
2017-Sep-11 14:30N 29°47' W 092°11'0 0.0
2017-Sep-11 14:00N 29°47' W 092°11'0 0.0
2017-Sep-11 13:24N 29°47' W 092°11'0 0.1
2017-Sep-11 12:00N 29°47' W 092°11'0 0.0
2017-Sep-11 11:29N 29°47' W 092°11'1 1.8
2017-Sep-11 11:00N 29°47' W 092°10'0 0.0
2017-Sep-11 10:30N 29°47' W 092°10'0 0.0
2017-Sep-11 09:57N 29°47' W 092°10'0 0.0
2017-Sep-11 09:30N 29°47' W 092°10'0 0.0
2017-Sep-11 09:00N 29°47' W 092°10'0 0.0
2017-Sep-11 08:00N 29°47' W 092°10'0 0.0
2017-Sep-11 07:24N 29°47' W 092°10'0 0.0
2017-Sep-11 06:36N 29°47' W 092°10'0 0.0
2017-Sep-11 06:29N 29°47' W 092°10'1 1.3
2017-Sep-11 05:50N 29°47' W 092°11'0 0.0
2017-Sep-11 05:23N 29°47' W 092°11'1 2.0
2017-Sep-11 05:00N 29°46' W 092°10'4 8.5
2017-Sep-11 04:29N 29°44' W 092°15'4 8.0
2017-Sep-11 04:00N 29°40' W 092°15'4 7.7
2017-Sep-11 03:30N 29°36' W 092°17'  

Dump ship's entire track history